createdAt,value
2018-03-22T00:00:31.699Z,70.80
2018-03-22T00:02:04.237Z,70.50
2018-03-22T00:03:36.759Z,70.70
2018-03-22T00:05:09.279Z,70.70
2018-03-22T00:06:42.633Z,70.80
2018-03-22T00:08:15.176Z,70.80
2018-03-22T00:09:47.681Z,70.10
2018-03-22T00:11:20.230Z,70.20
2018-03-22T00:12:52.750Z,70.30
2018-03-22T00:14:25.268Z,70.00
2018-03-22T00:15:58.624Z,69.90
2018-03-22T00:17:31.218Z,69.80
2018-03-22T00:19:03.748Z,69.80
2018-03-22T00:20:37.039Z,69.90
2018-03-22T00:22:21.637Z,69.90
2018-03-22T00:23:54.191Z,69.90
2018-03-22T00:25:26.746Z,70.10
2018-03-22T00:26:59.272Z,69.70
2018-03-22T00:28:31.809Z,69.50
2018-03-22T00:30:04.424Z,69.70
2018-03-22T00:31:37.691Z,70.80
2018-03-22T00:33:10.218Z,70.00
2018-03-22T00:34:42.720Z,70.00
2018-03-22T00:36:15.262Z,70.20
2018-03-22T00:37:47.774Z,70.00
2018-03-22T00:39:21.063Z,70.10
2018-03-22T00:40:54.368Z,70.00
2018-03-22T00:42:26.908Z,70.00
2018-03-22T00:43:59.435Z,69.90
2018-03-22T00:45:31.940Z,70.10
2018-03-22T00:47:08.889Z,70.20
2018-03-22T00:48:41.420Z,70.10
2018-03-22T00:50:13.948Z,70.10
2018-03-22T00:51:46.464Z,69.90
2018-03-22T00:53:19.013Z,69.80
2018-03-22T00:54:51.531Z,70.30
2018-03-22T00:56:24.065Z,70.20
2018-03-22T00:57:56.595Z,70.20
2018-03-22T00:59:29.124Z,70.20
2018-03-22T01:01:01.651Z,70.10
2018-03-22T01:02:34.920Z,69.70
2018-03-22T01:04:08.209Z,69.80
2018-03-22T01:05:41.496Z,70.20
2018-03-22T01:07:14.792Z,69.90
2018-03-22T01:08:48.083Z,69.80
2018-03-22T01:10:21.367Z,69.90
2018-03-22T01:11:54.644Z,69.70
2018-03-22T01:13:27.971Z,69.80
2018-03-22T01:15:00.476Z,69.70
2018-03-22T01:16:32.997Z,69.90
2018-03-22T01:18:05.506Z,69.80
2018-03-22T01:19:38.027Z,69.80
2018-03-22T01:21:10.584Z,70.20
2018-03-22T01:22:43.870Z,69.90
2018-03-22T01:24:16.393Z,69.90
2018-03-22T01:25:48.991Z,69.80
2018-03-22T01:27:22.262Z,69.40
2018-03-22T01:28:54.832Z,69.30
2018-03-22T01:30:37.231Z,69.30
2018-03-22T01:32:09.788Z,69.40
2018-03-22T01:33:42.356Z,69.50
2018-03-22T01:35:14.868Z,69.40
2018-03-22T01:36:48.200Z,69.30
2018-03-22T01:38:20.744Z,69.20
2018-03-22T01:39:53.244Z,69.30
2018-03-22T01:41:25.758Z,69.40
2018-03-22T01:42:59.024Z,69.70
2018-03-22T01:44:32.307Z,70.20
2018-03-22T01:46:04.815Z,69.50
2018-03-22T01:47:37.326Z,69.40
2018-03-22T01:49:09.919Z,69.70
2018-03-22T01:50:42.430Z,69.60
2018-03-22T01:52:14.936Z,69.30
2018-03-22T01:53:47.454Z,69.50
2018-03-22T01:55:20.723Z,69.20
2018-03-22T01:56:53.272Z,69.20
2018-03-22T01:58:26.558Z,69.20
2018-03-22T01:59:59.086Z,69.20
2018-03-22T02:01:31.584Z,69.30
2018-03-22T02:03:04.103Z,69.20
2018-03-22T02:04:36.615Z,69.10
2018-03-22T02:06:09.152Z,69.50
2018-03-22T02:07:41.712Z,69.50
2018-03-22T02:09:14.234Z,69.50
2018-03-22T02:10:46.784Z,69.50
2018-03-22T02:12:20.088Z,69.60
2018-03-22T02:13:52.629Z,69.60
2018-03-22T02:15:25.929Z,69.50
2018-03-22T02:16:58.438Z,69.20
2018-03-22T02:18:31.766Z,69.40
2018-03-22T02:20:04.276Z,69.40
2018-03-22T02:21:37.565Z,69.60
2018-03-22T02:23:10.850Z,69.60
2018-03-22T02:24:44.132Z,69.70
2018-03-22T02:26:17.407Z,69.40
2018-03-22T02:27:49.958Z,69.40
2018-03-22T02:29:22.523Z,69.50
2018-03-22T02:30:55.022Z,69.60
2018-03-22T02:32:28.299Z,70.30
2018-03-22T02:34:01.001Z,69.50
2018-03-22T02:35:34.263Z,69.60
2018-03-22T02:37:06.793Z,69.60
2018-03-22T02:38:39.294Z,69.60
2018-03-22T02:40:11.836Z,69.60
2018-03-22T02:41:44.352Z,70.30
2018-03-22T02:43:16.864Z,69.70
2018-03-22T02:44:49.381Z,69.50
2018-03-22T02:46:22.672Z,69.50
2018-03-22T02:47:55.947Z,69.70
2018-03-22T02:49:29.252Z,69.40
2018-03-22T02:51:02.552Z,69.40
2018-03-22T02:52:35.053Z,69.30
2018-03-22T02:54:07.557Z,69.30
2018-03-22T02:55:40.856Z,69.20
2018-03-22T02:57:14.143Z,69.30
2018-03-22T02:58:47.449Z,69.30
2018-03-22T03:00:19.956Z,69.30
2018-03-22T03:01:52.470Z,69.40
2018-03-22T03:03:24.990Z,69.20
2018-03-22T03:04:57.504Z,68.80
2018-03-22T03:06:30.788Z,69.30
2018-03-22T03:08:04.052Z,69.20
2018-03-22T03:09:36.612Z,69.20
2018-03-22T03:11:09.127Z,69.40
2018-03-22T03:12:41.644Z,69.50
2018-03-22T03:14:14.165Z,70.10
2018-03-22T03:15:46.685Z,69.40
2018-03-22T03:17:19.188Z,69.50
2018-03-22T03:18:51.714Z,69.20
2018-03-22T03:20:24.213Z,69.50
2018-03-22T03:21:57.482Z,69.40
2018-03-22T03:23:30.770Z,69.20
2018-03-22T03:25:04.057Z,69.10
2018-03-22T03:26:37.355Z,69.00
2018-03-22T03:28:10.623Z,68.60
2018-03-22T03:29:43.137Z,68.60
2018-03-22T03:31:15.634Z,68.60
2018-03-22T03:32:48.132Z,68.60
2018-03-22T03:34:21.396Z,69.20
2018-03-22T03:35:53.928Z,69.20
2018-03-22T03:37:26.446Z,69.40
2018-03-22T03:38:58.970Z,68.90
2018-03-22T03:40:31.514Z,68.80
2018-03-22T03:42:04.058Z,68.90
2018-03-22T03:43:36.578Z,68.60
2018-03-22T03:45:09.085Z,68.90
2018-03-22T03:46:41.594Z,68.90
2018-03-22T03:48:14.129Z,69.40
2018-03-22T03:49:46.630Z,69.20
2018-03-22T03:51:19.151Z,69.50
2018-03-22T03:52:51.667Z,69.30
2018-03-22T03:54:24.187Z,69.50
2018-03-22T03:55:56.725Z,69.30
2018-03-22T03:57:29.218Z,67.80
2018-03-22T03:59:01.731Z,69.20
2018-03-22T04:00:34.246Z,69.00
2018-03-22T04:02:06.751Z,69.40
2018-03-22T04:03:40.006Z,69.30
2018-03-22T04:05:12.520Z,69.20
2018-03-22T04:06:45.016Z,69.60
2018-03-22T04:08:17.510Z,69.20
2018-03-22T04:09:50.006Z,69.40
2018-03-22T04:11:23.288Z,69.40
2018-03-22T04:12:56.535Z,69.20
2018-03-22T04:14:29.026Z,69.20
2018-03-22T04:16:01.536Z,69.10
2018-03-22T04:17:34.038Z,69.20
2018-03-22T04:19:06.519Z,69.10
2018-03-22T04:20:39.027Z,69.40
2018-03-22T04:22:11.534Z,69.40
2018-03-22T04:23:44.034Z,69.50
2018-03-22T04:25:16.543Z,69.60
2018-03-22T04:26:49.092Z,69.70
2018-03-22T04:28:21.561Z,69.80
2018-03-22T04:29:54.810Z,69.90
2018-03-22T04:31:27.337Z,69.80
2018-03-22T04:32:59.824Z,70.30
2018-03-22T04:34:32.322Z,70.10
2018-03-22T04:36:04.839Z,70.60
2018-03-22T04:37:37.338Z,70.40
2018-03-22T04:39:09.836Z,70.60
2018-03-22T04:40:42.350Z,70.50
2018-03-22T04:42:14.852Z,70.60
2018-03-22T04:43:47.343Z,70.50
2018-03-22T04:45:20.609Z,70.70
2018-03-22T04:46:53.125Z,70.60
2018-03-22T04:48:25.624Z,70.40
2018-03-22T04:51:36.176Z,71.10
2018-03-22T04:53:08.667Z,70.40
2018-03-22T04:54:41.161Z,70.40
2018-03-22T04:56:13.674Z,70.30
2018-03-22T04:57:46.930Z,70.50
2018-03-22T04:59:19.508Z,70.50
2018-03-22T05:00:51.982Z,70.30
2018-03-22T05:02:24.482Z,70.50
2018-03-22T05:03:56.982Z,70.60
2018-03-22T05:05:29.477Z,70.70
2018-03-22T05:07:01.983Z,70.80
2018-03-22T05:08:34.485Z,71.00
2018-03-22T05:10:06.993Z,71.70
2018-03-22T05:11:40.283Z,71.90
2018-03-22T05:13:13.566Z,72.30
2018-03-22T05:14:46.826Z,72.60
2018-03-22T05:16:19.348Z,72.60
2018-03-22T05:17:51.842Z,73.00
2018-03-22T05:19:24.338Z,73.30
2018-03-22T05:20:56.841Z,73.40
2018-03-22T05:22:29.350Z,73.70
2018-03-22T05:24:01.859Z,74.00
2018-03-22T05:25:35.116Z,73.90
2018-03-22T05:27:07.623Z,73.80
2018-03-22T05:28:40.122Z,73.50
2018-03-22T05:30:12.621Z,74.40
2018-03-22T05:31:45.134Z,73.80
2018-03-22T05:33:17.630Z,73.80
2018-03-22T05:34:50.138Z,74.00
2018-03-22T05:36:22.649Z,73.90
2018-03-22T05:37:55.138Z,73.60
2018-03-22T05:39:27.639Z,73.90
2018-03-22T05:41:00.144Z,73.70
2018-03-22T05:42:32.674Z,73.70
2018-03-22T05:44:05.261Z,73.70
2018-03-22T05:45:38.529Z,73.80
2018-03-22T05:47:11.051Z,73.70
2018-03-22T05:48:43.554Z,73.70
2018-03-22T05:50:16.043Z,73.50
2018-03-22T05:51:49.461Z,73.70
2018-03-22T05:53:21.967Z,73.70
2018-03-22T05:54:54.453Z,73.90
2018-03-22T05:56:26.946Z,74.10
2018-03-22T05:57:59.468Z,74.80
2018-03-22T05:59:31.954Z,74.70
2018-03-22T06:01:04.453Z,75.20
2018-03-22T06:02:36.965Z,75.50
2018-03-22T06:04:09.464Z,75.40
2018-03-22T06:05:42.562Z,75.80
2018-03-22T06:07:15.832Z,75.70
2018-03-22T06:08:49.273Z,75.70
2018-03-22T06:10:21.763Z,75.80
2018-03-22T06:11:54.273Z,75.70
2018-03-22T06:13:27.540Z,76.00
2018-03-22T06:15:00.040Z,76.10
2018-03-22T06:16:32.532Z,76.30
2018-03-22T06:18:05.041Z,76.00
2018-03-22T06:19:37.538Z,76.50
2018-03-22T06:21:10.034Z,76.80
2018-03-22T06:22:42.551Z,76.70
2018-03-22T06:24:15.814Z,77.50
2018-03-22T06:25:48.311Z,77.50
2018-03-22T06:27:21.586Z,78.40
2018-03-22T06:28:54.858Z,78.60
2018-03-22T06:30:27.361Z,78.50
2018-03-22T06:32:00.630Z,79.80
